createdAt,value
2017-11-25T00:02:15.443Z,4.20
2017-11-25T00:04:43.092Z,4.50
2017-11-25T00:07:10.714Z,4.70
2017-11-25T00:09:38.333Z,4.60
2017-11-25T00:12:06.000Z,4.50
2017-11-25T00:14:33.629Z,4.60
2017-11-25T00:17:01.285Z,4.50
2017-11-25T00:19:28.900Z,4.70
2017-11-25T00:21:57.551Z,5.10
2017-11-25T00:24:25.211Z,4.90
2017-11-25T00:26:52.832Z,4.90
2017-11-25T00:29:20.839Z,5.00
2017-11-25T00:31:48.481Z,4.50
2017-11-25T00:34:16.162Z,4.80
2017-11-25T00:36:43.850Z,5.10
2017-11-25T00:39:12.231Z,4.80
2017-11-25T00:41:40.660Z,5.10
2017-11-25T00:44:08.327Z,4.80
2017-11-25T00:46:35.982Z,4.80
2017-11-25T00:49:03.603Z,5.20
2017-11-25T00:51:32.033Z,4.90
2017-11-25T00:53:59.683Z,5.00
2017-11-25T00:56:27.353Z,5.20
2017-11-25T00:58:55.009Z,5.10
2017-11-25T01:01:22.675Z,4.90
2017-11-25T01:03:50.334Z,5.00
2017-11-25T01:06:17.958Z,4.80
2017-11-25T01:08:45.615Z,4.90
2017-11-25T01:11:13.226Z,5.30
2017-11-25T01:13:40.879Z,5.40
2017-11-25T01:16:08.493Z,4.90
2017-11-25T01:18:36.153Z,5.30
2017-11-25T01:21:03.830Z,4.80
2017-11-25T01:23:31.443Z,4.90
2017-11-25T01:25:59.070Z,5.30
2017-11-25T01:28:26.731Z,4.90
2017-11-25T01:30:54.347Z,5.30
2017-11-25T01:33:22.140Z,5.40
2017-11-25T01:35:50.019Z,4.90
2017-11-25T01:38:17.667Z,5.00
2017-11-25T01:40:45.291Z,5.40
2017-11-25T01:43:12.943Z,4.90
2017-11-25T01:45:40.627Z,5.30
2017-11-25T01:48:08.305Z,5.20
2017-11-25T01:50:36.173Z,5.30
2017-11-25T01:53:03.859Z,5.50
2017-11-25T01:55:31.547Z,5.40
2017-11-25T01:57:59.447Z,5.40
2017-11-25T02:00:27.080Z,5.10
2017-11-25T02:02:54.695Z,5.20
2017-11-25T02:05:22.358Z,5.40
2017-11-25T02:07:50.206Z,5.10
2017-11-25T02:10:19.414Z,5.20
2017-11-25T02:12:47.053Z,5.30
2017-11-25T02:15:14.947Z,5.10
2017-11-25T02:17:42.711Z,5.10
2017-11-25T02:20:10.563Z,5.20
2017-11-25T02:22:38.283Z,5.40
2017-11-25T02:25:05.953Z,5.40
2017-11-25T02:27:33.760Z,5.40
2017-11-25T02:30:01.609Z,5.10
2017-11-25T02:32:29.322Z,5.20
2017-11-25T02:34:57.779Z,5.00
2017-11-25T02:37:25.454Z,5.00
2017-11-25T02:39:54.117Z,5.30
2017-11-25T02:42:21.876Z,5.20
2017-11-25T02:44:49.721Z,5.40
2017-11-25T02:47:17.401Z,5.00
2017-11-25T02:49:45.087Z,5.40
2017-11-25T02:52:12.791Z,5.10
2017-11-25T02:54:40.452Z,5.30
2017-11-25T02:57:08.167Z,5.10
2017-11-25T02:59:36.608Z,5.20
2017-11-25T03:02:04.303Z,5.00
2017-11-25T03:04:31.927Z,5.00
2017-11-25T03:06:59.577Z,5.40
2017-11-25T03:09:27.262Z,5.10
2017-11-25T03:11:54.920Z,5.20
2017-11-25T03:14:22.629Z,5.20
2017-11-25T03:16:50.263Z,5.40
2017-11-25T03:19:17.884Z,5.10
2017-11-25T03:21:45.562Z,5.20
2017-11-25T03:24:13.247Z,5.30
2017-11-25T03:26:40.871Z,5.00
2017-11-25T03:29:08.512Z,5.20
2017-11-25T03:31:36.463Z,5.00
2017-11-25T03:34:04.151Z,5.00
2017-11-25T03:36:31.762Z,5.00
2017-11-25T03:39:00.139Z,5.20
2017-11-25T03:41:28.570Z,5.30
2017-11-25T03:43:56.235Z,5.20
2017-11-25T03:46:23.890Z,5.00
2017-11-25T03:48:51.535Z,5.00
2017-11-25T03:51:19.195Z,5.00
2017-11-25T03:53:46.843Z,5.00
2017-11-25T03:56:15.190Z,5.00
2017-11-25T03:58:42.840Z,5.00
2017-11-25T04:01:10.585Z,4.80
2017-11-25T04:03:38.290Z,4.80
2017-11-25T04:06:05.927Z,4.80
2017-11-25T04:08:34.363Z,4.90
2017-11-25T04:11:01.995Z,4.70
2017-11-25T04:13:29.669Z,5.00
2017-11-25T04:15:57.332Z,4.80
2017-11-25T04:18:24.991Z,4.80
2017-11-25T04:20:52.673Z,4.80
2017-11-25T04:23:20.298Z,4.80
2017-11-25T04:25:47.923Z,4.80
2017-11-25T04:28:15.595Z,4.80
2017-11-25T04:30:44.042Z,4.80
2017-11-25T04:33:11.667Z,4.90
2017-11-25T04:35:39.342Z,4.80
2017-11-25T04:38:07.327Z,4.80
2017-11-25T04:40:34.970Z,4.70
2017-11-25T04:43:02.648Z,5.00
2017-11-25T04:45:30.407Z,4.80
2017-11-25T04:47:58.051Z,4.80
2017-11-25T04:50:25.721Z,4.70
2017-11-25T04:52:53.360Z,5.00
2017-11-25T04:55:21.148Z,4.80
2017-11-25T04:57:48.831Z,4.60
2017-11-25T05:00:17.983Z,4.70
2017-11-25T05:02:45.711Z,5.00
2017-11-25T05:05:13.368Z,4.70
2017-11-25T05:07:41.815Z,4.70
2017-11-25T05:10:09.444Z,5.20
2017-11-25T05:12:37.273Z,4.70
2017-11-25T05:15:05.748Z,4.70
2017-11-25T05:17:33.693Z,4.60
2017-11-25T05:20:01.364Z,4.70
2017-11-25T05:22:29.067Z,5.00
2017-11-25T05:24:56.767Z,4.70
2017-11-25T05:27:24.411Z,5.00
2017-11-25T05:29:52.026Z,4.80
2017-11-25T05:32:20.487Z,4.90
2017-11-25T05:34:48.104Z,4.70
2017-11-25T05:37:15.723Z,4.90
2017-11-25T05:39:43.390Z,4.70
2017-11-25T05:42:11.100Z,5.00
2017-11-25T05:44:38.707Z,4.70
2017-11-25T05:47:06.674Z,4.90
2017-11-25T05:49:34.369Z,4.60
2017-11-25T05:52:02.769Z,4.70
2017-11-25T05:54:30.624Z,4.90
2017-11-25T05:56:58.312Z,4.70
2017-11-25T05:59:25.947Z,4.90
2017-11-25T06:01:53.598Z,4.70
2017-11-25T06:04:21.267Z,4.90
2017-11-25T06:06:49.037Z,4.70
2017-11-25T06:09:16.651Z,4.90
2017-11-25T06:11:44.479Z,4.60
2017-11-25T06:14:12.130Z,4.70
2017-11-25T06:16:39.800Z,5.00
2017-11-25T06:19:07.474Z,4.70
2017-11-25T06:21:35.090Z,5.00
2017-11-25T06:24:02.751Z,4.70
2017-11-25T06:26:30.476Z,5.00
2017-11-25T06:28:58.891Z,4.90
2017-11-25T06:31:26.574Z,4.80
2017-11-25T06:33:54.196Z,4.70
2017-11-25T06:36:21.857Z,5.00
2017-11-25T06:38:49.559Z,4.70
2017-11-25T06:41:17.169Z,4.90
2017-11-25T06:43:44.862Z,4.50
2017-11-25T06:46:12.475Z,5.00
2017-11-25T06:48:40.986Z,4.70
2017-11-25T06:51:08.746Z,4.90
2017-11-25T06:53:36.358Z,4.60
2017-11-25T06:56:04.203Z,4.70
2017-11-25T06:58:31.963Z,4.40
2017-11-25T07:00:59.858Z,4.40
2017-11-25T07:03:28.379Z,4.40
2017-11-25T07:05:56.022Z,4.50
2017-11-25T07:08:23.675Z,4.60
2017-11-25T07:10:54.124Z,4.70
2017-11-25T07:13:21.842Z,4.60
2017-11-25T07:15:49.782Z,4.60
2017-11-25T07:18:17.394Z,4.60
2017-11-25T07:20:45.062Z,4.60
2017-11-25T07:23:12.724Z,4.40
2017-11-25T07:25:40.414Z,4.60
2017-11-25T07:28:08.961Z,4.40
2017-11-25T07:30:36.598Z,4.40
2017-11-25T07:33:05.035Z,4.60
2017-11-25T07:35:32.708Z,4.80
2017-11-25T07:38:00.399Z,4.80
2017-11-25T07:40:28.840Z,5.00
2017-11-25T07:42:56.508Z,4.80
2017-11-25T07:45:24.192Z,4.60
2017-11-25T07:47:52.594Z,4.60
2017-11-25T07:50:21.446Z,5.00
2017-11-25T07:52:49.134Z,4.70
2017-11-25T07:55:18.499Z,4.40
2017-11-25T07:57:46.672Z,4.40
2017-11-25T08:00:14.350Z,4.50
2017-11-25T08:02:41.974Z,4.70
2017-11-25T08:05:09.638Z,4.60
2017-11-25T08:07:37.327Z,4.40
2017-11-25T08:10:05.178Z,4.40
2017-11-25T08:12:32.858Z,4.70
2017-11-25T08:15:00.535Z,4.50
2017-11-25T08:17:28.316Z,4.40
2017-11-25T08:19:55.992Z,4.50
2017-11-25T08:22:23.861Z,4.40
2017-11-25T08:24:55.641Z,4.40
2017-11-25T08:27:23.496Z,4.40
2017-11-25T08:29:51.148Z,4.40
2017-11-25T08:32:18.766Z,4.40
2017-11-25T08:34:46.476Z,4.30
2017-11-25T08:37:14.152Z,4.40
2017-11-25T08:39:41.971Z,4.40
2017-11-25T08:42:09.592Z,4.60
2017-11-25T08:44:37.503Z,4.40
2017-11-25T08:47:05.155Z,4.50
2017-11-25T08:49:32.787Z,4.40
2017-11-25T08:52:01.534Z,4.30
2017-11-25T08:54:29.279Z,4.60
2017-11-25T08:56:56.903Z,4.40
2017-11-25T08:59:24.792Z,4.40
2017-11-25T09:01:52.415Z,4.50
2017-11-25T09:04:20.291Z,4.30
2017-11-25T09:06:48.687Z,4.90
2017-11-25T09:09:16.708Z,4.80
2017-11-25T09:11:44.336Z,4.60
2017-11-25T09:14:12.162Z,4.50
2017-11-25T09:16:40.635Z,4.40
2017-11-25T09:19:08.308Z,4.80
2017-11-25T09:21:35.992Z,4.70
2017-11-25T09:24:03.659Z,4.60
2017-11-25T09:26:31.453Z,4.70
2017-11-25T09:28:59.223Z,4.60
2017-11-25T09:31:27.026Z,4.60
2017-11-25T09:33:55.408Z,4.70
2017-11-25T09:36:23.108Z,4.50
2017-11-25T09:38:50.782Z,4.90
2017-11-25T09:41:18.872Z,4.70
2017-11-25T09:43:46.528Z,4.60
2017-11-25T09:46:14.212Z,4.70
2017-11-25T09:48:42.643Z,4.40
2017-11-25T09:51:10.717Z,4.80
2017-11-25T09:53:38.690Z,4.50
2017-11-25T09:56:06.303Z,4.40
2017-11-25T09:58:34.011Z,4.50
2017-11-25T10:01:01.663Z,4.30
2017-11-25T10:03:29.379Z,4.30
2017-11-25T10:05:57.185Z,4.40
2017-11-25T10:08:24.852Z,4.50
2017-11-25T10:10:52.500Z,4.40
2017-11-25T10:13:20.123Z,4.40
2017-11-25T10:15:48.030Z,4.40
2017-11-25T10:18:15.658Z,4.40
2017-11-25T10:20:43.774Z,4.40
2017-11-25T10:23:11.394Z,4.40
2017-11-25T10:25:39.007Z,4.40
2017-11-25T10:28:06.686Z,4.30
2017-11-25T10:30:35.078Z,4.30
2017-11-25T10:33:02.735Z,4.40
2017-11-25T10:35:30.550Z,4.50
2017-11-25T10:37:58.181Z,4.30
2017-11-25T10:40:26.482Z,4.40
2017-11-25T10:42:54.778Z,4.40
2017-11-25T10:45:22.432Z,4.30
2017-11-25T10:47:50.393Z,4.40
2017-11-25T10:50:18.763Z,4.40
2017-11-25T10:52:46.445Z,4.40
2017-11-25T10:55:14.098Z,4.40
2017-11-25T10:57:41.778Z,4.30
2017-11-25T11:00:10.182Z,4.50
2017-11-25T11:02:37.806Z,4.30
2017-11-25T11:05:06.119Z,4.40
2017-11-25T11:07:33.812Z,4.40
2017-11-25T11:10:01.487Z,4.50
2017-11-25T11:12:29.165Z,4.30
2017-11-25T11:14:59.226Z,4.60
2017-11-25T11:17:26.887Z,4.80
2017-11-25T11:19:54.527Z,4.70
2017-11-25T11:22:22.950Z,4.70
2017-11-25T11:24:50.611Z,4.70
2017-11-25T11:27:18.836Z,4.40
2017-11-25T11:29:46.499Z,4.50
2017-11-25T11:32:15.490Z,4.70
2017-11-25T11:34:43.900Z,4.70
2017-11-25T11:37:12.214Z,4.70
2017-11-25T11:39:39.891Z,4.60
2017-11-25T11:42:07.526Z,4.70
2017-11-25T11:44:36.941Z,4.70
2017-11-25T11:47:04.791Z,4.80
2017-11-25T11:49:32.427Z,4.70
2017-11-25T11:52:00.108Z,5.20
2017-11-25T11:54:27.835Z,4.70
2017-11-25T11:56:55.511Z,5.30
2017-11-25T11:59:23.277Z,5.00
2017-11-25T12:01:50.923Z,5.00
2017-11-25T12:04:19.036Z,5.00
2017-11-25T12:06:46.709Z,5.00
2017-11-25T12:09:15.274Z,5.00
2017-11-25T12:11:43.118Z,5.10
2017-11-25T12:14:10.739Z,5.20
2017-11-25T12:16:38.406Z,4.90
2017-11-25T12:19:06.027Z,5.00
2017-11-25T12:21:33.648Z,4.80
2017-11-25T12:24:01.620Z,4.70
2017-11-25T12:26:29.390Z,5.20
2017-11-25T12:28:57.039Z,4.70
2017-11-25T12:31:25.047Z,5.00
2017-11-25T12:33:54.413Z,4.90
2017-11-25T12:36:22.204Z,4.80
2017-11-25T12:38:49.966Z,5.10
2017-11-25T12:41:17.809Z,5.20
2017-11-25T12:43:45.491Z,5.00
2017-11-25T12:46:13.150Z,5.00
2017-11-25T12:48:41.029Z,5.10
2017-11-25T12:51:08.775Z,5.20
2017-11-25T12:53:37.303Z,5.10
2017-11-25T12:56:05.018Z,5.60
2017-11-25T12:58:32.698Z,5.10
2017-11-25T13:01:00.491Z,5.50
2017-11-25T13:03:28.291Z,5.30
2017-11-25T13:05:55.952Z,5.30
2017-11-25T13:08:23.610Z,5.40
2017-11-25T13:10:51.231Z,5.40
2017-11-25T13:13:19.869Z,5.20
2017-11-25T13:15:47.487Z,5.30
2017-11-25T13:18:15.114Z,5.10
2017-11-25T13:20:43.552Z,5.00
2017-11-25T13:23:11.195Z,5.30
2017-11-25T13:25:38.811Z,5.10
2017-11-25T13:28:06.479Z,5.30
2017-11-25T13:30:34.907Z,5.10
2017-11-25T13:33:02.583Z,5.20
2017-11-25T13:35:30.195Z,5.30
2017-11-25T13:37:57.862Z,4.70
2017-11-25T13:40:26.195Z,4.90
2017-11-25T13:42:53.878Z,4.70
2017-11-25T13:45:21.714Z,4.70
2017-11-25T13:47:49.329Z,4.90
2017-11-25T13:50:16.960Z,4.60
2017-11-25T13:52:45.703Z,4.90
2017-11-25T13:55:13.338Z,4.50
2017-11-25T13:57:41.282Z,4.90
2017-11-25T14:00:09.215Z,4.60
2017-11-25T14:02:37.053Z,4.50
2017-11-25T14:05:04.727Z,5.00
2017-11-25T14:07:32.528Z,4.70
2017-11-25T14:10:01.348Z,4.50
2017-11-25T14:12:29.658Z,4.80
2017-11-25T14:14:57.636Z,4.60
2017-11-25T14:17:26.087Z,5.00
2017-11-25T14:19:53.851Z,4.70
2017-11-25T14:22:21.834Z,4.90
2017-11-25T14:24:49.605Z,4.50
2017-11-25T14:27:17.275Z,5.00
2017-11-25T14:29:45.523Z,4.50
2017-11-25T14:32:13.143Z,4.40
2017-11-25T14:34:41.059Z,4.00
2017-11-25T14:37:08.755Z,4.40
2017-11-25T14:39:37.162Z,4.00
2017-11-25T14:42:04.946Z,4.70
2017-11-25T14:44:32.708Z,4.10
2017-11-25T14:47:00.691Z,4.20
2017-11-25T14:49:28.370Z,4.40
2017-11-25T14:51:56.007Z,4.20
2017-11-25T14:54:24.154Z,4.20
2017-11-25T14:56:51.830Z,4.10
2017-11-25T14:59:20.697Z,4.10
2017-11-25T15:01:48.394Z,4.10
2017-11-25T15:04:16.074Z,4.00
2017-11-25T15:06:43.700Z,4.30
2017-11-25T15:09:11.363Z,3.80
2017-11-25T15:11:39.008Z,4.00
2017-11-25T15:14:06.684Z,4.00
2017-11-25T15:16:34.383Z,4.00
2017-11-25T15:19:02.132Z,3.70
2017-11-25T15:21:29.787Z,3.90
2017-11-25T15:23:57.503Z,3.90
2017-11-25T15:26:25.413Z,3.90
2017-11-25T15:28:53.100Z,3.70
2017-11-25T15:31:20.762Z,3.50
2017-11-25T15:33:49.194Z,3.60
2017-11-25T15:36:16.851Z,3.40
2017-11-25T15:38:44.572Z,3.60
2017-11-25T15:41:12.195Z,3.60
2017-11-25T15:43:39.937Z,3.50
2017-11-25T15:46:07.919Z,3.70
2017-11-25T15:48:35.687Z,3.10
2017-11-25T15:51:03.368Z,3.10
2017-11-25T15:53:31.107Z,3.40
2017-11-25T15:55:58.760Z,3.30
2017-11-25T15:58:26.626Z,3.30
2017-11-25T16:00:54.314Z,3.60
2017-11-25T16:03:22.878Z,3.30
2017-11-25T16:05:50.528Z,3.40
2017-11-25T16:08:18.722Z,3.30
2017-11-25T16:10:47.487Z,3.30
2017-11-25T16:13:15.166Z,3.00
2017-11-25T16:15:43.850Z,3.40
2017-11-25T16:18:11.543Z,3.00
2017-11-25T16:20:39.170Z,2.80
2017-11-25T16:23:06.833Z,3.00
2017-11-25T16:25:34.583Z,3.00
2017-11-25T16:28:02.231Z,2.80
2017-11-25T16:30:29.929Z,2.80
2017-11-25T16:32:57.565Z,2.90
2017-11-25T16:35:25.412Z,2.90
2017-11-25T16:37:53.127Z,3.10
2017-11-25T16:40:22.592Z,3.10
2017-11-25T16:42:50.510Z,3.00
2017-11-25T16:45:18.308Z,2.80
2017-11-25T16:47:46.070Z,3.00
2017-11-25T16:50:14.674Z,3.00
2017-11-25T16:52:42.518Z,2.90
2017-11-25T16:55:10.512Z,2.70
2017-11-25T16:57:39.076Z,3.00
2017-11-25T17:00:06.705Z,2.90
2017-11-25T17:02:34.415Z,3.00
2017-11-25T17:05:02.078Z,2.80
2017-11-25T17:07:31.236Z,2.80
2017-11-25T17:09:58.890Z,2.80
2017-11-25T17:12:26.566Z,2.90
2017-11-25T17:14:54.483Z,2.90
2017-11-25T17:20:11.499Z,2.70
2017-11-25T17:22:39.238Z,2.90
2017-11-25T17:25:07.043Z,2.70
2017-11-25T17:27:35.478Z,3.00
2017-11-25T17:30:04.211Z,2.80
2017-11-25T17:32:31.823Z,2.70
2017-11-25T17:34:59.487Z,2.90
2017-11-25T17:37:27.107Z,2.80
2017-11-25T17:39:54.834Z,2.90
2017-11-25T17:42:23.271Z,2.60
2017-11-25T17:44:51.603Z,2.60
2017-11-25T17:47:20.036Z,2.50
2017-11-25T17:49:47.699Z,2.80
2017-11-25T17:52:15.316Z,2.70
2017-11-25T17:54:43.494Z,2.90
2017-11-25T17:57:11.385Z,2.70
2017-11-25T17:59:38.998Z,2.70
2017-11-25T18:02:07.656Z,2.70
2017-11-25T18:04:35.272Z,2.50
2017-11-25T18:07:02.971Z,2.60
2017-11-25T18:09:30.591Z,2.50
2017-11-25T18:11:58.206Z,2.50
2017-11-25T18:14:26.641Z,3.00
2017-11-25T18:16:54.275Z,2.80
2017-11-25T18:19:21.942Z,3.00
2017-11-25T18:21:49.558Z,3.00
2017-11-25T18:24:17.179Z,3.00
2017-11-25T18:26:44.830Z,3.00
2017-11-25T18:29:12.529Z,2.90
2017-11-25T18:31:40.198Z,2.90
2017-11-25T18:34:08.538Z,3.30
2017-11-25T18:36:36.187Z,3.10
2017-11-25T18:39:03.922Z,3.20
2017-11-25T18:41:32.354Z,3.30
2017-11-25T18:43:59.967Z,3.20
2017-11-25T18:46:27.800Z,3.50
2017-11-25T18:48:56.554Z,3.50
2017-11-25T18:51:24.791Z,3.40
2017-11-25T18:53:53.216Z,3.50
2017-11-25T18:56:20.838Z,3.50
2017-11-25T18:58:48.494Z,3.60
2017-11-25T19:01:17.035Z,3.70
2017-11-25T19:03:48.089Z,3.40
2017-11-25T19:06:17.842Z,3.70
2017-11-25T19:08:47.638Z,3.50
2017-11-25T19:11:17.709Z,3.50
2017-11-25T19:13:47.271Z,3.50
2017-11-25T19:16:16.566Z,3.60
2017-11-25T19:18:44.182Z,3.40
2017-11-25T19:21:11.848Z,3.30
2017-11-25T19:23:40.504Z,3.30
2017-11-25T19:26:08.346Z,3.30
2017-11-25T19:28:36.003Z,3.10
2017-11-25T19:31:03.689Z,3.20
2017-11-25T19:33:31.363Z,3.30
2017-11-25T19:35:59.026Z,3.20
2017-11-25T19:38:27.888Z,3.30
2017-11-25T19:40:58.853Z,3.30
2017-11-25T19:43:26.996Z,3.20
2017-11-25T19:45:54.674Z,3.30
2017-11-25T19:48:22.286Z,3.40
2017-11-25T19:50:49.942Z,3.30
2017-11-25T19:53:17.739Z,3.10
2017-11-25T19:55:45.502Z,3.50
2017-11-25T19:58:13.654Z,3.50
2017-11-25T20:00:41.268Z,3.50
2017-11-25T20:03:08.923Z,3.50
2017-11-25T20:05:36.582Z,3.40
2017-11-25T20:08:04.636Z,3.50
2017-11-25T20:10:32.590Z,3.50
2017-11-25T20:13:00.214Z,3.60
2017-11-25T20:15:29.142Z,3.60
2017-11-25T20:17:56.905Z,3.40
2017-11-25T20:20:24.622Z,3.50
2017-11-25T20:22:52.302Z,3.50
2017-11-25T20:25:19.928Z,3.60
2017-11-25T20:27:48.884Z,3.60
2017-11-25T20:30:16.643Z,3.40
2017-11-25T20:32:44.259Z,3.50
2017-11-25T20:35:13.482Z,3.20
2017-11-25T20:37:41.554Z,3.50
2017-11-25T20:40:09.403Z,3.00
2017-11-25T20:42:37.037Z,3.20
2017-11-25T20:45:05.704Z,3.20
2017-11-25T20:47:33.341Z,3.20
2017-11-25T20:50:01.216Z,3.30
2017-11-25T20:52:28.883Z,3.20
2017-11-25T20:54:56.979Z,3.30
2017-11-25T20:57:25.512Z,3.20
2017-11-25T20:59:53.167Z,3.30
2017-11-25T21:02:23.635Z,3.20
2017-11-25T21:04:51.472Z,3.20
2017-11-25T21:07:20.543Z,3.20
2017-11-25T21:09:48.215Z,3.10
2017-11-25T21:12:17.433Z,3.00
2017-11-25T21:14:48.326Z,3.00
2017-11-25T21:17:19.294Z,3.00
2017-11-25T21:19:50.144Z,2.90
2017-11-25T21:22:20.653Z,3.00
2017-11-25T21:24:51.766Z,3.00
2017-11-25T21:27:21.753Z,3.20
2017-11-25T21:29:54.445Z,3.00
2017-11-25T21:32:24.034Z,3.20
2017-11-25T21:34:51.672Z,2.90
2017-11-25T21:37:21.007Z,2.70
2017-11-25T21:39:48.739Z,3.00
2017-11-25T21:42:16.398Z,3.20
2017-11-25T21:44:44.213Z,3.20
2017-11-25T21:47:12.101Z,3.00
2017-11-25T21:49:40.102Z,3.20
2017-11-25T21:52:08.579Z,3.10
2017-11-25T21:54:37.024Z,3.30
2017-11-25T21:57:05.259Z,3.10
2017-11-25T21:59:33.638Z,3.30
2017-11-25T22:02:03.498Z,3.10
2017-11-25T22:04:31.155Z,3.30
2017-11-25T22:06:58.810Z,3.10
2017-11-25T22:09:26.431Z,3.40
2017-11-25T22:11:54.118Z,3.30
2017-11-25T22:14:22.028Z,3.20
2017-11-25T22:16:49.646Z,3.30
2017-11-25T22:19:17.542Z,3.20
2017-11-25T22:21:45.167Z,3.30
2017-11-25T22:24:14.498Z,3.30
2017-11-25T22:26:42.154Z,3.30
2017-11-25T22:29:09.855Z,3.30
2017-11-25T22:31:38.247Z,3.30
2017-11-25T22:34:06.347Z,3.20
2017-11-25T22:36:34.119Z,3.20
2017-11-25T22:39:01.764Z,2.80
2017-11-25T22:41:29.433Z,3.00
2017-11-25T22:43:57.324Z,3.00
2017-11-25T22:46:24.997Z,3.00
2017-11-25T22:48:52.679Z,3.00
2017-11-25T22:51:21.107Z,3.00
2017-11-25T22:53:48.722Z,2.80
2017-11-25T22:56:17.141Z,2.80
2017-11-25T22:58:44.779Z,2.80
2017-11-25T23:01:12.394Z,2.70
2017-11-25T23:03:40.611Z,2.90
2017-11-25T23:06:11.176Z,2.80
2017-11-25T23:08:38.795Z,3.00
2017-11-25T23:11:06.476Z,3.00
2017-11-25T23:13:34.462Z,3.00
2017-11-25T23:16:02.314Z,2.90
2017-11-25T23:18:29.990Z,2.80
2017-11-25T23:20:57.648Z,2.80
2017-11-25T23:23:25.312Z,2.80
2017-11-25T23:25:53.061Z,2.70
2017-11-25T23:28:20.675Z,2.90
2017-11-25T23:30:48.332Z,2.90
2017-11-25T23:33:16.051Z,2.90
2017-11-25T23:35:43.727Z,3.00
2017-11-25T23:38:12.357Z,2.80
2017-11-25T23:40:40.025Z,2.90
2017-11-25T23:43:07.928Z,2.80
2017-11-25T23:45:35.604Z,2.80
2017-11-25T23:48:03.229Z,2.50
2017-11-25T23:50:30.883Z,2.70
2017-11-25T23:52:58.671Z,2.90
2017-11-25T23:55:26.330Z,3.00
2017-11-25T23:57:53.983Z,2.70
